createdAt,value
2022-09-13T00:01:33.841Z,20.40
2022-09-13T00:04:01.139Z,20.30
2022-09-13T00:06:28.270Z,20.40
2022-09-13T00:08:55.426Z,20.80
2022-09-13T00:11:25.534Z,21.00
2022-09-13T00:13:53.784Z,21.20
2022-09-13T00:16:24.475Z,21.50
2022-09-13T00:18:53.131Z,21.50
2022-09-13T00:21:22.586Z,21.60
2022-09-13T00:23:51.863Z,21.50
2022-09-13T00:26:24.790Z,21.30
2022-09-13T00:28:57.251Z,21.70
2022-09-13T00:31:27.433Z,21.70
2022-09-13T00:33:55.343Z,21.60
2022-09-13T00:36:22.567Z,21.70
2022-09-13T00:38:49.718Z,21.50
2022-09-13T00:41:18.964Z,21.20
2022-09-13T00:43:58.439Z,20.70
2022-09-13T00:46:44.589Z,20.70
2022-09-13T00:49:21.571Z,21.00
2022-09-13T00:51:53.163Z,20.90
2022-09-13T00:54:24.221Z,21.10
2022-09-13T00:56:57.462Z,21.40
2022-09-13T00:59:43.419Z,21.50
2022-09-13T01:02:11.080Z,21.30
2022-09-13T01:07:27.709Z,21.30
2022-09-13T01:10:25.369Z,20.90
2022-09-13T01:13:29.175Z,20.40
2022-09-13T01:16:10.454Z,20.30
2022-09-13T01:18:46.796Z,19.80
2022-09-13T01:21:29.160Z,19.40
2022-09-13T01:24:27.657Z,19.30
2022-09-13T01:27:27.609Z,19.30
2022-09-13T01:30:48.972Z,19.60
2022-09-13T01:33:16.095Z,19.50
2022-09-13T01:36:32.713Z,19.90
2022-09-13T01:39:02.644Z,20.20
2022-09-13T01:41:44.654Z,20.70
2022-09-13T01:44:21.623Z,20.40
2022-09-13T01:47:10.093Z,20.20
2022-09-13T01:49:46.973Z,20.50
2022-09-13T01:52:42.828Z,20.70
2022-09-13T01:55:33.956Z,21.10
2022-09-13T01:58:26.942Z,21.10
2022-09-13T02:01:18.168Z,21.10
2022-09-13T02:03:48.569Z,20.70
2022-09-13T02:06:20.101Z,20.60
2022-09-13T02:08:54.237Z,20.10
2022-09-13T02:11:22.881Z,19.90
2022-09-13T02:14:22.933Z,19.30
2022-09-13T02:16:57.777Z,19.00
2022-09-13T02:19:42.069Z,19.10
2022-09-13T02:22:11.627Z,19.30
2022-09-13T02:24:42.650Z,19.20
2022-09-13T02:27:11.797Z,19.30
2022-09-13T02:29:42.038Z,19.80
2022-09-13T02:32:22.484Z,19.80
2022-09-13T02:34:57.328Z,19.80
2022-09-13T02:37:27.514Z,19.70
2022-09-13T02:40:03.725Z,19.70
2022-09-13T02:42:33.080Z,19.80
2022-09-13T02:45:00.732Z,20.00
2022-09-13T02:47:57.417Z,19.90
2022-09-13T02:50:28.213Z,19.80
2022-09-13T02:53:45.556Z,19.60
2022-09-13T02:56:31.547Z,20.00
2022-09-13T02:59:01.769Z,20.00
2022-09-13T03:01:29.073Z,20.10
2022-09-13T03:03:56.419Z,20.10
2022-09-13T03:06:25.122Z,19.70
2022-09-13T03:08:53.358Z,19.60
2022-09-13T03:11:32.943Z,19.60
2022-09-13T03:14:11.962Z,19.70
2022-09-13T03:17:07.481Z,20.10
2022-09-13T03:19:48.687Z,20.20
2022-09-13T03:22:19.365Z,19.90
2022-09-13T03:24:57.677Z,19.40
2022-09-13T03:27:54.941Z,19.40
2022-09-13T03:30:22.102Z,20.00
2022-09-13T03:33:20.541Z,19.90
2022-09-13T03:36:16.342Z,19.40
2022-09-13T03:38:50.695Z,19.30
2022-09-13T03:41:24.805Z,19.50
2022-09-13T03:43:58.715Z,20.10
2022-09-13T03:46:31.078Z,20.10
2022-09-13T03:49:06.742Z,19.70
2022-09-13T03:51:34.167Z,19.70
2022-09-13T03:54:04.743Z,19.40
2022-09-13T03:56:32.089Z,19.30
2022-09-13T03:58:59.257Z,19.30
2022-09-13T04:01:27.115Z,19.30
2022-09-13T04:03:56.810Z,19.40
2022-09-13T04:06:24.454Z,19.50
2022-09-13T04:08:51.653Z,19.40
2022-09-13T04:11:21.213Z,19.30
2022-09-13T04:13:48.428Z,19.60
2022-09-13T04:16:15.701Z,19.40
2022-09-13T04:18:42.871Z,19.50
2022-09-13T04:21:10.022Z,19.60
2022-09-13T04:23:37.193Z,20.00
2022-09-13T04:26:06.157Z,20.50
2022-09-13T04:28:33.355Z,20.30
2022-09-13T04:31:00.480Z,19.90
2022-09-13T04:33:27.615Z,19.70
2022-09-13T04:35:59.520Z,19.80
2022-09-13T04:38:27.036Z,20.40
2022-09-13T04:40:55.337Z,20.20
2022-09-13T04:43:23.180Z,20.60
2022-09-13T04:45:50.726Z,20.60
2022-09-13T04:48:18.043Z,20.40
2022-09-13T04:50:45.222Z,20.10
2022-09-13T04:53:12.538Z,20.50
2022-09-13T04:55:39.709Z,20.40
2022-09-13T04:58:06.903Z,20.30
2022-09-13T05:00:34.375Z,19.90
2022-09-13T05:03:01.683Z,20.00
2022-09-13T05:05:29.333Z,20.20
2022-09-13T05:07:56.495Z,20.30
2022-09-13T05:10:24.330Z,20.30
2022-09-13T05:12:52.034Z,20.60
2022-09-13T05:15:19.251Z,20.70
2022-09-13T05:17:46.391Z,20.70
2022-09-13T05:20:13.577Z,20.20
2022-09-13T05:22:40.706Z,20.30
2022-09-13T05:25:08.439Z,20.10
2022-09-13T05:27:35.699Z,20.30
2022-09-13T05:30:03.154Z,20.30
2022-09-13T05:32:32.078Z,20.00
2022-09-13T05:34:59.248Z,20.10
2022-09-13T05:37:26.379Z,20.00
2022-09-13T05:40:10.661Z,20.10
2022-09-13T05:42:38.692Z,20.00
2022-09-13T05:45:06.615Z,19.90
2022-09-13T05:47:33.759Z,20.10
2022-09-13T05:50:44.802Z,20.60
2022-09-13T05:52:54.298Z,20.80
2022-09-13T05:55:22.206Z,20.80
2022-09-13T05:57:50.081Z,21.20
2022-09-13T06:00:17.658Z,21.90
2022-09-13T06:02:44.833Z,22.60
2022-09-13T06:05:12.566Z,23.10
2022-09-13T06:07:43.313Z,23.10
2022-09-13T06:10:11.544Z,24.10
2022-09-13T06:12:38.793Z,24.30
2022-09-13T06:15:06.383Z,24.40
2022-09-13T06:17:33.510Z,24.30
2022-09-13T06:20:00.647Z,24.30
2022-09-13T06:22:33.031Z,24.60
2022-09-13T06:25:00.542Z,24.30
2022-09-13T06:27:29.242Z,24.00
2022-09-13T06:29:56.373Z,23.80
2022-09-13T06:32:23.481Z,23.70
2022-09-13T06:34:50.621Z,23.30
2022-09-13T06:37:17.747Z,23.60
2022-09-13T06:39:44.916Z,24.00
2022-09-13T06:42:12.083Z,24.20
2022-09-13T06:44:39.217Z,24.80
2022-09-13T06:47:06.374Z,25.20
2022-09-13T06:49:33.502Z,25.20
2022-09-13T06:52:00.611Z,25.50
2022-09-13T06:54:27.742Z,25.70
2022-09-13T06:56:54.902Z,26.20
2022-09-13T06:59:22.140Z,26.40
2022-09-13T07:01:49.439Z,27.10
2022-09-13T07:04:19.402Z,27.20
2022-09-13T07:06:48.181Z,27.30
2022-09-13T07:09:21.388Z,27.40
2022-09-13T07:11:49.858Z,27.70
2022-09-13T07:14:19.270Z,27.10
2022-09-13T07:16:46.896Z,27.00
2022-09-13T07:19:32.171Z,26.90
2022-09-13T07:21:59.516Z,26.40
2022-09-13T07:24:27.195Z,26.90
2022-09-13T07:26:54.445Z,27.00
2022-09-13T07:29:23.669Z,27.10
2022-09-13T07:31:52.992Z,27.80
2022-09-13T07:34:22.392Z,28.40
2022-09-13T07:36:50.058Z,27.70
2022-09-13T07:39:22.070Z,27.30
2022-09-13T07:41:50.003Z,27.20
2022-09-13T07:44:17.201Z,27.50
2022-09-13T07:46:44.443Z,27.50
2022-09-13T07:49:13.870Z,27.20
2022-09-13T07:51:42.774Z,26.70
2022-09-13T07:54:18.309Z,27.00
2022-09-13T07:56:45.752Z,27.50
2022-09-13T07:59:17.138Z,27.80
2022-09-13T08:01:46.699Z,27.80
2022-09-13T08:04:19.849Z,28.00
2022-09-13T08:06:47.451Z,28.20
2022-09-13T08:09:15.488Z,28.50
2022-09-13T08:11:52.712Z,27.80
2022-09-13T08:14:21.732Z,27.20
2022-09-13T08:16:48.957Z,27.20
2022-09-13T08:19:18.248Z,27.70
2022-09-13T08:21:45.997Z,27.70
2022-09-13T08:24:18.628Z,27.60
2022-09-13T08:26:46.377Z,27.30
2022-09-13T08:29:14.666Z,27.20
2022-09-13T08:31:41.996Z,26.90
2022-09-13T08:34:12.849Z,26.70
2022-09-13T08:36:41.111Z,26.80
2022-09-13T08:39:08.723Z,26.90
2022-09-13T08:41:48.750Z,27.10
2022-09-13T08:44:23.697Z,27.10
2022-09-13T08:46:51.064Z,27.50
2022-09-13T08:49:26.650Z,27.70
2022-09-13T08:52:03.421Z,27.70
2022-09-13T08:54:30.575Z,27.90
2022-09-13T08:57:11.671Z,27.90
2022-09-13T08:59:39.398Z,28.00
2022-09-13T09:02:23.733Z,27.60
2022-09-13T09:05:04.885Z,27.90
2022-09-13T09:07:38.117Z,27.80
2022-09-13T09:10:15.277Z,28.20
2022-09-13T09:12:54.972Z,28.30
2022-09-13T09:15:36.254Z,28.30
2022-09-13T09:18:18.417Z,28.00
2022-09-13T09:20:50.785Z,28.30
2022-09-13T09:23:25.347Z,28.20
2022-09-13T09:26:14.624Z,27.80
2022-09-13T09:28:41.760Z,27.60
2022-09-13T09:31:16.387Z,27.50
2022-09-13T09:33:55.479Z,27.50
2022-09-13T09:36:51.883Z,26.90
2022-09-13T09:39:19.095Z,27.10
2022-09-13T09:41:46.766Z,27.00
2022-09-13T09:44:21.075Z,26.70
2022-09-13T09:46:57.150Z,26.90
2022-09-13T09:50:02.663Z,26.80
2022-09-13T09:52:40.670Z,27.40
2022-09-13T09:55:27.827Z,27.70
2022-09-13T09:58:11.236Z,27.50
2022-09-13T10:00:51.892Z,27.70
2022-09-13T10:06:33.093Z,27.90
2022-09-13T10:09:05.802Z,28.20
2022-09-13T10:12:00.340Z,28.20
2022-09-13T10:15:00.387Z,28.30
2022-09-13T10:17:58.396Z,28.20
2022-09-13T10:21:03.106Z,28.30
2022-09-13T10:24:02.414Z,28.40
2022-09-13T10:27:03.392Z,28.40
2022-09-13T10:30:04.003Z,28.50
2022-09-13T10:32:31.124Z,28.80
2022-09-13T10:35:08.175Z,28.60
2022-09-13T10:37:36.235Z,29.10
2022-09-13T10:40:03.957Z,28.90
2022-09-13T10:42:31.300Z,29.20
2022-09-13T10:45:08.898Z,29.30
2022-09-13T10:47:47.871Z,29.50
2022-09-13T10:50:23.031Z,29.30
2022-09-13T10:52:55.147Z,29.30
2022-09-13T10:55:35.163Z,30.00
2022-09-13T10:58:02.270Z,30.20
2022-09-13T11:00:39.608Z,30.50
2022-09-13T11:03:16.642Z,31.10
2022-09-13T11:05:53.703Z,31.00
2022-09-13T11:08:33.232Z,31.40
2022-09-13T11:11:15.686Z,31.70
2022-09-13T11:14:13.508Z,31.90
2022-09-13T11:17:25.751Z,32.10
2022-09-13T11:20:28.202Z,32.20
2022-09-13T11:23:05.289Z,32.60
2022-09-13T11:25:50.560Z,32.80
2022-09-13T11:28:29.741Z,32.40
2022-09-13T11:31:17.454Z,32.40
2022-09-13T11:34:09.508Z,32.40
2022-09-13T11:37:10.740Z,31.90
2022-09-13T11:39:38.821Z,31.40
2022-09-13T11:42:46.533Z,31.10
2022-09-13T11:45:24.616Z,30.80
2022-09-13T11:48:15.787Z,30.90
2022-09-13T11:51:18.877Z,30.80
2022-09-13T11:53:58.281Z,30.70
2022-09-13T11:56:48.501Z,30.30
2022-09-13T11:59:41.868Z,30.20
2022-09-13T12:02:38.581Z,30.40
2022-09-13T12:05:22.841Z,29.90
2022-09-13T12:07:54.915Z,29.90
2022-09-13T12:10:48.307Z,29.50
2022-09-13T12:13:30.617Z,29.40
2022-09-13T12:16:00.971Z,29.20
2022-09-13T12:18:32.248Z,28.90
2022-09-13T12:21:14.463Z,29.20
2022-09-13T12:23:50.474Z,28.80
2022-09-13T12:26:27.007Z,29.00
2022-09-13T12:28:59.822Z,29.50
2022-09-13T12:31:29.451Z,29.70
2022-09-13T12:33:57.073Z,29.90
2022-09-13T12:36:49.274Z,30.10
2022-09-13T12:39:31.517Z,30.10
2022-09-13T12:42:38.159Z,30.20
2022-09-13T12:45:16.548Z,29.90
2022-09-13T12:47:55.650Z,30.40
2022-09-13T12:50:44.563Z,30.30
2022-09-13T12:53:31.952Z,30.10
2022-09-13T12:56:11.068Z,30.50
2022-09-13T12:58:50.371Z,30.50
2022-09-13T13:01:25.359Z,30.50
2022-09-13T13:04:17.149Z,30.50
2022-09-13T13:07:03.887Z,30.50
2022-09-13T13:09:34.069Z,31.00
2022-09-13T13:12:01.172Z,31.10
2022-09-13T13:14:39.186Z,31.30
2022-09-13T13:17:43.747Z,31.80
2022-09-13T13:20:46.947Z,31.60
2022-09-13T13:23:25.237Z,31.90
2022-09-13T13:26:20.226Z,32.30
2022-09-13T13:28:47.646Z,32.20
2022-09-13T13:31:30.177Z,32.60
2022-09-13T13:34:20.794Z,32.70
2022-09-13T13:36:50.541Z,33.00
2022-09-13T13:39:24.029Z,33.30
2022-09-13T13:41:57.215Z,32.90
2022-09-13T13:44:24.318Z,32.60
2022-09-13T13:46:52.984Z,32.30
2022-09-13T13:49:32.136Z,32.10
2022-09-13T13:52:25.447Z,31.70
2022-09-13T13:54:57.291Z,31.80
2022-09-13T13:57:25.999Z,32.20
2022-09-13T14:00:01.572Z,32.30
2022-09-13T14:02:50.872Z,32.00
2022-09-13T14:05:48.492Z,32.40
2022-09-13T14:08:37.774Z,32.50
2022-09-13T14:11:20.517Z,32.50
2022-09-13T14:13:53.974Z,32.50
2022-09-13T14:16:39.186Z,32.80
2022-09-13T14:19:15.443Z,32.60
2022-09-13T14:21:42.756Z,33.00
2022-09-13T14:24:23.502Z,33.40
2022-09-13T14:26:58.107Z,33.60
2022-09-13T14:29:26.165Z,33.50
2022-09-13T14:31:55.322Z,33.70
2022-09-13T14:34:24.842Z,33.80
2022-09-13T14:36:54.636Z,33.40
2022-09-13T14:39:22.328Z,32.90
2022-09-13T14:41:50.157Z,32.10
2022-09-13T14:44:28.997Z,31.80
2022-09-13T14:47:02.153Z,31.20
2022-09-13T14:49:34.176Z,31.20
2022-09-13T14:52:05.887Z,30.80
2022-09-13T14:54:44.636Z,30.80
2022-09-13T14:57:24.017Z,30.60
2022-09-13T14:59:54.262Z,30.00
2022-09-13T15:02:25.663Z,30.00
2022-09-13T15:04:55.558Z,30.10
2022-09-13T15:07:27.855Z,30.10
2022-09-13T15:10:07.299Z,29.90
2022-09-13T15:12:35.535Z,29.70
2022-09-13T15:15:26.829Z,29.30
2022-09-13T15:18:00.493Z,29.60
2022-09-13T15:20:48.941Z,29.50
2022-09-13T15:23:38.760Z,29.50
2022-09-13T15:26:26.483Z,29.20
2022-09-13T15:28:59.043Z,29.20
2022-09-13T15:31:28.921Z,29.30
2022-09-13T15:34:18.118Z,29.10
2022-09-13T15:37:12.077Z,29.30
2022-09-13T15:39:51.135Z,29.50
2022-09-13T15:42:18.415Z,29.60
2022-09-13T15:44:45.605Z,29.90
2022-09-13T15:47:17.209Z,30.20
2022-09-13T15:49:50.267Z,31.00
2022-09-13T15:52:18.934Z,31.90
2022-09-13T15:54:49.228Z,31.80
2022-09-13T15:57:21.384Z,32.30
2022-09-13T15:59:48.960Z,32.70
2022-09-13T16:02:28.613Z,33.00
2022-09-13T16:04:56.555Z,32.50
2022-09-13T16:07:24.778Z,31.90
2022-09-13T16:09:52.504Z,31.90
2022-09-13T16:12:23.396Z,31.40
2022-09-13T16:14:50.775Z,31.30
2022-09-13T16:17:22.556Z,31.10
2022-09-13T16:19:50.048Z,31.00
2022-09-13T16:22:17.438Z,31.00
2022-09-13T16:24:58.964Z,30.80
2022-09-13T16:27:35.659Z,30.50
2022-09-13T16:30:03.029Z,30.50
2022-09-13T16:32:49.014Z,30.40
2022-09-13T16:35:38.310Z,30.40
2022-09-13T16:38:05.591Z,30.10
2022-09-13T16:40:59.383Z,30.10
2022-09-13T16:43:57.635Z,29.80
2022-09-13T16:46:26.002Z,29.50
2022-09-13T16:49:00.697Z,29.50
2022-09-13T16:51:55.215Z,29.30
2022-09-13T16:54:22.336Z,29.00
2022-09-13T16:56:49.658Z,28.90
2022-09-13T16:59:17.426Z,29.10
2022-09-13T17:01:44.737Z,29.20
2022-09-13T17:04:11.942Z,29.00
2022-09-13T17:06:39.071Z,28.90
2022-09-13T17:09:07.287Z,29.10
2022-09-13T17:11:37.756Z,29.00
2022-09-13T17:14:05.948Z,29.00
2022-09-13T17:16:36.136Z,28.90
2022-09-13T17:19:06.839Z,28.80
2022-09-13T17:21:34.845Z,28.80
2022-09-13T17:24:02.151Z,28.90
2022-09-13T17:26:29.893Z,28.80
2022-09-13T17:28:57.057Z,28.80
2022-09-13T17:31:24.432Z,28.90
2022-09-13T17:33:53.110Z,28.90
2022-09-13T17:36:20.879Z,28.90
2022-09-13T17:38:48.523Z,29.00
2022-09-13T17:41:18.078Z,28.90
2022-09-13T17:43:46.390Z,28.90
2022-09-13T17:46:21.612Z,28.60
2022-09-13T17:48:53.464Z,28.20
2022-09-13T17:51:23.062Z,27.90
2022-09-13T17:54:02.007Z,27.20
2022-09-13T17:56:40.601Z,27.00
2022-09-13T17:59:13.950Z,27.00
2022-09-13T18:01:43.450Z,26.70
2022-09-13T18:04:11.525Z,26.70
2022-09-13T18:06:45.028Z,26.60
2022-09-13T18:09:13.915Z,27.00
2022-09-13T18:11:41.464Z,26.50
2022-09-13T18:14:12.652Z,26.30
2022-09-13T18:16:40.516Z,26.60
2022-09-13T18:19:07.760Z,26.60
2022-09-13T18:21:34.947Z,26.90
2022-09-13T18:24:02.279Z,27.00
2022-09-13T18:26:31.345Z,26.60
2022-09-13T18:29:02.688Z,26.40
2022-09-13T18:31:31.338Z,26.80
2022-09-13T18:34:00.909Z,26.70
2022-09-13T18:36:29.488Z,26.70
2022-09-13T18:38:57.169Z,26.80
2022-09-13T18:41:26.884Z,26.70
2022-09-13T18:43:55.911Z,26.50
2022-09-13T18:46:30.128Z,26.70
2022-09-13T18:48:57.807Z,26.70
2022-09-13T18:51:33.637Z,26.70
2022-09-13T18:54:01.598Z,26.30
2022-09-13T18:56:29.351Z,26.00
2022-09-13T18:58:58.631Z,25.90
2022-09-13T19:01:28.448Z,25.90
2022-09-13T19:03:56.737Z,26.20
2022-09-13T19:06:41.522Z,25.90
2022-09-13T19:09:09.778Z,26.30
2022-09-13T19:11:46.922Z,26.30
2022-09-13T19:14:22.875Z,26.60
2022-09-13T19:16:50.610Z,26.40
2022-09-13T19:19:17.755Z,26.10
2022-09-13T19:21:45.201Z,26.20
2022-09-13T19:24:17.601Z,25.80
2022-09-13T19:26:46.836Z,25.90
2022-09-13T19:29:16.254Z,26.00
2022-09-13T19:31:47.928Z,26.00
2022-09-13T19:34:17.327Z,26.20
2022-09-13T19:36:44.916Z,26.00
2022-09-13T19:39:12.430Z,26.00
2022-09-13T19:41:40.270Z,26.20
2022-09-13T19:44:08.387Z,26.20
2022-09-13T19:46:38.103Z,26.60
2022-09-13T19:49:06.239Z,25.60
2022-09-13T19:51:35.863Z,25.30
2022-09-13T19:54:04.195Z,25.30
2022-09-13T19:56:33.894Z,25.10
2022-09-13T19:59:01.730Z,25.00
2022-09-13T20:01:31.767Z,24.80
2022-09-13T20:04:01.415Z,24.80
2022-09-13T20:06:33.443Z,24.80
2022-09-13T20:09:02.742Z,24.90
2022-09-13T20:11:30.062Z,24.60
2022-09-13T20:13:59.289Z,24.50
2022-09-13T20:16:33.957Z,24.50
2022-09-13T20:19:02.040Z,24.60
2022-09-13T20:21:31.974Z,24.50
2022-09-13T20:24:05.352Z,24.60
2022-09-13T20:26:35.705Z,24.60
2022-09-13T20:29:05.588Z,24.70
2022-09-13T20:31:35.940Z,24.50
2022-09-13T20:34:05.051Z,24.60
2022-09-13T20:36:34.180Z,25.00
2022-09-13T20:39:03.651Z,24.90
2022-09-13T20:41:31.565Z,24.80
2022-09-13T20:44:01.753Z,24.80
2022-09-13T20:46:31.515Z,24.70
2022-09-13T20:48:59.074Z,24.60
2022-09-13T20:51:28.114Z,24.60
2022-09-13T20:54:00.277Z,24.30
2022-09-13T20:56:28.695Z,24.20
2022-09-13T20:58:59.792Z,24.20
2022-09-13T21:01:28.632Z,24.20
2022-09-13T21:03:56.504Z,24.50
2022-09-13T21:06:25.692Z,24.50
2022-09-13T21:08:53.323Z,24.40
2022-09-13T21:11:23.298Z,24.50
2022-09-13T21:13:55.899Z,25.20
2022-09-13T21:16:25.378Z,25.70
2022-09-13T21:18:53.713Z,25.50
2022-09-13T21:21:24.052Z,25.30
2022-09-13T21:23:51.558Z,24.80
2022-09-13T21:26:21.731Z,25.20
2022-09-13T21:28:49.455Z,25.40
2022-09-13T21:31:21.652Z,25.50
2022-09-13T21:33:53.524Z,25.90
2022-09-13T21:36:22.963Z,25.90
2022-09-13T21:38:51.517Z,26.00
2022-09-13T21:41:19.173Z,25.70
2022-09-13T21:43:46.686Z,25.80
2022-09-13T21:46:19.468Z,25.80
2022-09-13T21:48:50.892Z,25.70
2022-09-13T21:51:26.519Z,25.40
2022-09-13T21:53:59.607Z,25.30
2022-09-13T21:56:28.931Z,25.70
2022-09-13T21:58:59.338Z,25.90
2022-09-13T22:01:29.436Z,26.00
2022-09-13T22:03:57.208Z,26.00
2022-09-13T22:06:24.559Z,25.60
2022-09-13T22:08:56.555Z,25.60
2022-09-13T22:11:26.787Z,25.50
2022-09-13T22:13:54.922Z,25.60
2022-09-13T22:16:33.193Z,25.80
2022-09-13T22:19:08.498Z,25.80
2022-09-13T22:21:38.459Z,26.00
2022-09-13T22:24:07.238Z,26.00
2022-09-13T22:26:36.943Z,26.00
2022-09-13T22:29:04.955Z,26.10
2022-09-13T22:31:34.395Z,26.10
2022-09-13T22:34:02.126Z,26.10
2022-09-13T22:36:29.308Z,26.00
2022-09-13T22:38:56.964Z,26.10
2022-09-13T22:41:26.633Z,26.10
2022-09-13T22:43:54.174Z,26.20
2022-09-13T22:46:24.961Z,26.20
2022-09-13T22:48:53.844Z,26.20
2022-09-13T22:51:21.594Z,26.20
2022-09-13T22:53:50.308Z,26.10
2022-09-13T22:56:26.209Z,26.10
2022-09-13T22:58:55.106Z,26.10
2022-09-13T23:01:22.801Z,26.10
2022-09-13T23:03:50.362Z,25.90
2022-09-13T23:06:21.087Z,26.00
2022-09-13T23:08:49.508Z,25.80
2022-09-13T23:11:21.923Z,25.70
2022-09-13T23:13:51.565Z,25.80
2022-09-13T23:16:22.643Z,25.80
2022-09-13T23:18:50.307Z,25.80
2022-09-13T23:21:20.604Z,25.70
2022-09-13T23:23:48.067Z,25.30
2022-09-13T23:26:19.066Z,25.40
2022-09-13T23:28:51.478Z,25.60
2022-09-13T23:31:20.732Z,25.70
2022-09-13T23:33:49.818Z,25.50
2022-09-13T23:36:20.565Z,25.70
2022-09-13T23:42:50.665Z,25.80
2022-09-13T23:45:29.152Z,25.50
2022-09-13T23:47:56.323Z,25.60
2022-09-13T23:50:23.548Z,25.30
2022-09-13T23:52:50.715Z,25.20
2022-09-13T23:55:18.024Z,25.30
2022-09-13T23:57:45.182Z,24.60
